createdAt,value
2023-03-04T00:01:11.702Z,123.25
2023-03-04T00:03:39.674Z,115.05
2023-03-04T00:06:07.939Z,106.28
2023-03-04T00:08:36.196Z,108.35
2023-03-04T00:11:04.284Z,102.40
2023-03-04T00:13:32.278Z,97.32
2023-03-04T00:15:59.946Z,105.97
2023-03-04T00:18:27.793Z,114.50
2023-03-04T00:20:55.521Z,119.68
2023-03-04T00:23:23.391Z,123.45
2023-03-04T00:25:51.117Z,131.30
2023-03-04T00:28:19.786Z,122.25
2023-03-04T00:30:47.449Z,123.07
2023-03-04T00:33:15.748Z,118.05
2023-03-04T00:35:43.443Z,104.57
2023-03-04T00:38:11.230Z,110.70
2023-03-04T00:40:38.760Z,105.32
2023-03-04T00:43:06.634Z,114.30
2023-03-04T00:45:34.155Z,113.05
2023-03-04T00:48:02.209Z,113.78
2023-03-04T00:50:29.676Z,116.82
2023-03-04T00:52:57.964Z,106.10
2023-03-04T00:55:25.490Z,107.13
2023-03-04T00:57:53.767Z,102.13
2023-03-04T01:00:21.772Z,92.72
2023-03-04T01:02:49.653Z,98.80
2023-03-04T01:05:17.554Z,90.25
2023-03-04T01:07:45.435Z,106.03
2023-03-04T01:10:15.665Z,99.72
2023-03-04T01:12:43.963Z,92.25
2023-03-04T01:15:14.079Z,87.35
2023-03-04T01:17:42.201Z,100.82
2023-03-04T01:20:11.039Z,104.15
2023-03-04T01:22:38.887Z,102.18
2023-03-04T01:25:07.802Z,104.35
2023-03-04T01:27:35.631Z,104.47
2023-03-04T01:30:04.424Z,103.03
2023-03-04T01:32:32.370Z,103.47
2023-03-04T01:34:59.896Z,105.35
2023-03-04T01:37:27.643Z,104.45
2023-03-04T01:39:55.206Z,101.55
2023-03-04T01:42:26.369Z,105.68
2023-03-04T01:44:54.306Z,86.80
2023-03-04T01:47:25.743Z,88.85
2023-03-04T01:49:56.528Z,88.00
2023-03-04T01:52:27.359Z,93.00
2023-03-04T01:54:56.288Z,95.05
2023-03-04T01:57:26.632Z,92.70
2023-03-04T02:00:22.676Z,93.30
2023-03-04T02:02:58.033Z,101.63
2023-03-04T02:05:28.053Z,103.72
2023-03-04T02:07:58.460Z,103.15
2023-03-04T02:10:26.447Z,104.55
2023-03-04T02:12:54.573Z,109.00
2023-03-04T02:15:23.002Z,93.95
2023-03-04T02:17:50.981Z,84.63
2023-03-04T02:20:41.663Z,90.47
2023-03-04T02:23:37.502Z,83.45
2023-03-04T02:26:10.237Z,90.03
2023-03-04T02:28:38.307Z,98.10
2023-03-04T02:31:06.503Z,110.78
2023-03-04T02:33:34.606Z,93.22
2023-03-04T02:36:02.121Z,97.18
2023-03-04T02:38:30.286Z,102.15
2023-03-04T02:40:58.444Z,88.75
2023-03-04T02:43:26.925Z,119.27
2023-03-04T02:45:54.508Z,99.65
2023-03-04T02:48:24.407Z,101.13
2023-03-04T02:50:54.178Z,94.70
2023-03-04T02:53:22.493Z,108.60
2023-03-04T02:55:50.477Z,110.50
2023-03-04T02:58:20.373Z,107.47
2023-03-04T03:00:48.505Z,116.88
2023-03-04T03:03:16.685Z,112.65
2023-03-04T03:05:44.620Z,116.38
2023-03-04T03:08:12.609Z,123.38
2023-03-04T03:10:41.595Z,131.25
2023-03-04T03:13:09.731Z,120.28
2023-03-04T03:15:42.243Z,131.65
2023-03-04T03:18:11.042Z,123.88
2023-03-04T03:20:38.816Z,128.95
2023-03-04T03:23:06.778Z,139.32
2023-03-04T03:25:34.452Z,132.48
2023-03-04T03:28:02.401Z,116.82
2023-03-04T03:30:30.094Z,125.60
2023-03-04T03:32:58.152Z,133.95
2023-03-04T03:35:26.002Z,132.93
2023-03-04T03:37:53.907Z,135.73
2023-03-04T03:40:21.395Z,121.93
2023-03-04T03:42:49.259Z,126.13
2023-03-04T03:45:16.953Z,127.88
2023-03-04T03:47:45.235Z,134.75
2023-03-04T03:50:12.866Z,122.35
2023-03-04T03:52:40.688Z,117.10
2023-03-04T03:55:09.354Z,131.18
2023-03-04T03:57:37.201Z,133.38
2023-03-04T04:00:07.272Z,132.77
2023-03-04T04:02:41.138Z,136.43
2023-03-04T04:05:10.660Z,126.87
2023-03-04T04:07:38.844Z,130.48
2023-03-04T04:10:06.891Z,126.25
2023-03-04T04:12:35.034Z,125.70
2023-03-04T04:15:02.584Z,121.18
2023-03-04T04:17:30.425Z,123.20
2023-03-04T04:19:57.974Z,104.97
2023-03-04T04:22:25.767Z,118.25
2023-03-04T04:24:53.506Z,122.63
2023-03-04T04:27:21.429Z,112.30
2023-03-04T04:29:48.851Z,118.93
2023-03-04T04:32:16.889Z,107.15
2023-03-04T04:34:44.351Z,120.63
2023-03-04T04:37:12.265Z,118.13
2023-03-04T04:39:39.822Z,106.75
2023-03-04T04:42:07.593Z,106.38
2023-03-04T04:44:35.093Z,103.35
2023-03-04T04:47:03.096Z,116.28
2023-03-04T04:49:30.640Z,103.20
2023-03-04T04:51:58.761Z,113.45
2023-03-04T04:54:26.348Z,108.90
2023-03-04T04:56:54.319Z,115.70
2023-03-04T04:59:22.156Z,112.60
2023-03-04T05:01:50.057Z,114.25
2023-03-04T05:04:17.580Z,117.35
2023-03-04T05:06:45.441Z,115.60
2023-03-04T05:09:13.374Z,116.90
2023-03-04T05:11:41.176Z,115.05
2023-03-04T05:14:08.774Z,104.57
2023-03-04T05:16:36.600Z,109.22
2023-03-04T05:19:04.516Z,108.15
2023-03-04T05:21:32.566Z,102.70
2023-03-04T05:24:00.006Z,109.13
2023-03-04T05:26:27.937Z,97.35
2023-03-04T05:28:55.444Z,94.97
2023-03-04T05:31:23.567Z,84.60
2023-03-04T05:33:51.079Z,98.15
2023-03-04T05:36:19.004Z,107.03
2023-03-04T05:38:46.589Z,99.50
2023-03-04T05:41:14.524Z,98.18
2023-03-04T05:43:43.053Z,99.40
2023-03-04T05:46:16.382Z,111.30
2023-03-04T05:48:45.059Z,111.38
2023-03-04T05:51:12.898Z,111.47
2023-03-04T05:53:41.812Z,105.82
2023-03-04T05:56:19.889Z,111.70
2023-03-04T05:58:50.590Z,99.57
2023-03-04T06:01:18.605Z,100.75
2023-03-04T06:03:48.704Z,107.60
2023-03-04T06:06:17.091Z,98.50
2023-03-04T06:08:44.553Z,97.57
2023-03-04T06:11:12.368Z,98.25
2023-03-04T06:13:40.297Z,105.45
2023-03-04T06:16:08.556Z,99.25
2023-03-04T06:18:36.251Z,86.70
2023-03-04T06:21:05.072Z,86.78
2023-03-04T06:23:32.603Z,86.45
2023-03-04T06:26:01.947Z,84.80
2023-03-04T06:28:30.315Z,77.28
2023-03-04T06:30:58.663Z,84.87
2023-03-04T06:33:26.598Z,85.53
2023-03-04T06:35:57.171Z,84.25
2023-03-04T06:38:26.429Z,86.18
2023-03-04T06:43:25.324Z,95.70
2023-03-04T06:45:53.114Z,90.20
2023-03-04T06:48:20.586Z,88.00
2023-03-04T06:50:48.359Z,88.82
2023-03-04T06:53:16.146Z,100.28
2023-03-04T06:55:43.956Z,88.03
2023-03-04T06:58:11.420Z,97.32
2023-03-04T07:00:39.461Z,99.30
2023-03-04T07:03:06.935Z,90.03
2023-03-04T07:05:34.777Z,96.57
2023-03-04T07:08:02.311Z,87.28
2023-03-04T07:10:30.501Z,95.28
2023-03-04T07:12:58.210Z,98.63
2023-03-04T07:15:26.004Z,105.07
2023-03-04T07:17:53.530Z,101.10
2023-03-04T07:20:21.761Z,106.15
2023-03-04T07:22:49.279Z,98.38
2023-03-04T07:25:18.155Z,103.70
2023-03-04T07:27:45.679Z,106.82
2023-03-04T07:30:14.159Z,111.03
2023-03-04T07:32:42.252Z,99.40
2023-03-04T07:35:10.355Z,115.90
2023-03-04T07:37:37.828Z,108.13
2023-03-04T07:40:08.256Z,95.30
2023-03-04T07:42:35.951Z,89.32
2023-03-04T07:45:10.627Z,88.88
2023-03-04T07:47:39.897Z,91.10
2023-03-04T07:50:09.162Z,81.60
2023-03-04T07:52:42.154Z,78.10
2023-03-04T07:55:12.368Z,99.35
2023-03-04T07:57:45.244Z,101.50
2023-03-04T08:00:16.558Z,101.90
2023-03-04T08:02:44.418Z,94.72
2023-03-04T08:05:13.509Z,96.75
2023-03-04T08:07:43.362Z,105.28
2023-03-04T08:10:12.236Z,92.13
2023-03-04T08:12:40.331Z,90.45
2023-03-04T08:15:09.525Z,97.13
2023-03-04T08:17:38.466Z,101.75
2023-03-04T08:20:07.797Z,91.30
2023-03-04T08:22:35.557Z,97.82
2023-03-04T08:25:03.830Z,95.63
2023-03-04T08:27:31.530Z,78.32
2023-03-04T08:29:59.575Z,90.20
2023-03-04T08:32:27.522Z,82.30
2023-03-04T08:34:57.041Z,81.50
2023-03-04T08:37:24.690Z,81.95
2023-03-04T08:39:52.603Z,87.03
2023-03-04T08:42:20.260Z,76.38
2023-03-04T08:44:48.180Z,76.10
2023-03-04T08:47:16.156Z,91.25
2023-03-04T08:49:44.265Z,92.20
2023-03-04T08:52:11.831Z,96.30
2023-03-04T08:54:39.703Z,80.20
2023-03-04T08:57:07.952Z,92.13
2023-03-04T08:59:38.158Z,95.70
2023-03-04T09:02:06.256Z,81.68
2023-03-04T09:04:34.332Z,72.45
2023-03-04T09:07:01.854Z,64.40
2023-03-04T09:09:30.178Z,69.30
2023-03-04T09:11:58.428Z,68.97
2023-03-04T09:14:26.365Z,74.70
2023-03-04T09:16:54.050Z,77.75
2023-03-04T09:19:22.177Z,76.47
2023-03-04T09:21:49.785Z,70.05
2023-03-04T09:24:17.756Z,72.88
2023-03-04T09:26:46.108Z,74.95
2023-03-04T09:29:14.128Z,65.87
2023-03-04T09:31:41.726Z,63.40
2023-03-04T09:34:09.822Z,71.57
2023-03-04T09:36:37.482Z,65.63
2023-03-04T09:39:06.660Z,70.35
2023-03-04T09:41:50.619Z,71.10
2023-03-04T09:44:38.082Z,66.70
2023-03-04T09:47:17.979Z,62.97
2023-03-04T09:50:00.825Z,63.88
2023-03-04T09:52:46.765Z,58.97
2023-03-04T09:55:28.359Z,60.17
2023-03-04T09:58:17.061Z,58.92
2023-03-04T10:01:17.438Z,52.67
2023-03-04T10:04:05.809Z,58.63
2023-03-04T10:06:34.572Z,57.10
2023-03-04T10:09:26.360Z,56.72
2023-03-04T10:12:13.840Z,54.03
2023-03-04T10:14:58.585Z,51.60
2023-03-04T10:17:42.850Z,51.78
2023-03-04T10:20:21.311Z,49.45
2023-03-04T10:22:59.134Z,59.55
2023-03-04T10:25:30.689Z,39.75
2023-03-04T10:28:20.638Z,48.70
2023-03-04T10:31:13.861Z,41.35
2023-03-04T10:33:42.642Z,40.47
2023-03-04T10:36:31.390Z,24.70
2023-03-04T10:39:07.185Z,41.60
2023-03-04T10:41:34.991Z,51.80
2023-03-04T10:44:05.728Z,54.85
2023-03-04T10:46:36.033Z,56.33
2023-03-04T10:49:04.961Z,47.22
2023-03-04T10:51:33.642Z,46.05
2023-03-04T10:54:10.952Z,39.75
2023-03-04T10:56:53.446Z,45.80
2023-03-04T10:59:37.000Z,48.75
2023-03-04T11:02:24.439Z,41.33
2023-03-04T11:05:21.706Z,41.78
2023-03-04T11:07:57.290Z,48.28
2023-03-04T11:10:38.291Z,43.60
2023-03-04T11:13:12.079Z,47.42
2023-03-04T11:15:58.184Z,44.72
2023-03-04T11:18:51.262Z,38.67
2023-03-04T11:21:26.951Z,42.75
2023-03-04T11:24:25.759Z,47.53
2023-03-04T11:27:13.271Z,45.17
2023-03-04T11:30:23.938Z,40.70
2023-03-04T11:33:07.267Z,39.33
2023-03-04T11:36:30.384Z,39.08
2023-03-04T11:39:00.596Z,44.35
2023-03-04T11:41:35.938Z,42.28
2023-03-04T11:44:09.019Z,43.03
2023-03-04T11:46:43.689Z,45.78
2023-03-04T11:49:17.361Z,51.00
2023-03-04T11:52:03.845Z,37.17
2023-03-04T11:55:18.524Z,46.00
2023-03-04T11:58:16.291Z,61.85
2023-03-04T12:01:03.670Z,41.13
2023-03-04T12:04:03.747Z,32.63
2023-03-04T12:07:11.316Z,44.22
2023-03-04T12:09:49.531Z,35.97
2023-03-04T12:12:53.919Z,40.20
2023-03-04T12:15:41.681Z,51.75
2023-03-04T12:18:39.554Z,41.00
2023-03-04T12:21:42.635Z,44.58
2023-03-04T12:24:42.988Z,40.92
2023-03-04T12:27:45.666Z,38.60
2023-03-04T12:30:50.131Z,47.35
2023-03-04T12:34:02.445Z,36.22
2023-03-04T12:37:05.402Z,47.65
2023-03-04T12:40:06.811Z,34.17
2023-03-04T12:42:51.664Z,38.00
2023-03-04T12:45:30.677Z,36.05
2023-03-04T12:48:35.180Z,45.25
2023-03-04T12:51:49.625Z,35.25
2023-03-04T12:54:31.363Z,31.77
2023-03-04T12:57:24.106Z,38.10
2023-03-04T13:00:12.880Z,43.20
2023-03-04T13:03:10.792Z,40.85
2023-03-04T13:05:46.040Z,44.28
2023-03-04T13:08:28.284Z,40.10
2023-03-04T13:11:04.100Z,41.33
2023-03-04T13:14:00.635Z,37.78
2023-03-04T13:16:40.896Z,45.20
2023-03-04T13:19:47.234Z,32.65
2023-03-04T13:22:39.295Z,41.03
2023-03-04T13:25:39.611Z,44.88
2023-03-04T13:28:21.292Z,42.92
2023-03-04T13:30:55.887Z,41.95
2023-03-04T13:33:23.753Z,41.58
2023-03-04T13:36:00.187Z,47.60
2023-03-04T13:38:28.221Z,41.03
2023-03-04T13:41:25.017Z,44.10
2023-03-04T13:44:23.336Z,34.60
2023-03-04T13:46:51.037Z,31.35
2023-03-04T13:49:24.831Z,33.92
2023-03-04T13:51:53.021Z,36.03
2023-03-04T13:54:30.107Z,36.47
2023-03-04T13:57:00.489Z,42.13
2023-03-04T13:59:50.833Z,45.22
2023-03-04T14:02:22.812Z,47.70
2023-03-04T14:05:00.319Z,34.05
2023-03-04T14:07:37.205Z,45.13
2023-03-04T14:10:19.508Z,42.42
2023-03-04T14:12:59.165Z,37.30
2023-03-04T14:15:30.227Z,48.85
2023-03-04T14:18:05.864Z,42.58
2023-03-04T14:20:42.817Z,40.30
2023-03-04T14:23:32.328Z,43.40
2023-03-04T14:26:18.368Z,39.00
2023-03-04T14:28:57.785Z,43.38
2023-03-04T14:31:30.364Z,37.30
2023-03-04T14:34:02.420Z,42.38
2023-03-04T14:36:34.631Z,36.70
2023-03-04T14:39:06.910Z,39.05
2023-03-04T14:41:39.736Z,36.92
2023-03-04T14:44:18.093Z,46.67
2023-03-04T14:47:06.509Z,41.63
2023-03-04T14:49:38.420Z,38.25
2023-03-04T14:52:07.350Z,44.92
2023-03-04T14:54:40.890Z,42.88
2023-03-04T14:57:36.008Z,39.42
2023-03-04T15:00:22.774Z,45.00
2023-03-04T15:03:24.621Z,41.20
2023-03-04T15:05:56.018Z,45.22
2023-03-04T15:08:38.397Z,33.95
2023-03-04T15:11:09.020Z,43.60
2023-03-04T15:13:53.693Z,37.92
2023-03-04T15:16:28.160Z,40.53
2023-03-04T15:19:24.891Z,44.35
2023-03-04T15:22:02.562Z,39.75
2023-03-04T15:24:30.433Z,48.13
2023-03-04T15:26:58.223Z,31.58
2023-03-04T15:29:26.476Z,44.45
2023-03-04T15:31:54.111Z,34.80
2023-03-04T15:34:22.114Z,41.92
2023-03-04T15:36:51.164Z,40.83
2023-03-04T15:39:21.786Z,36.10
2023-03-04T15:41:50.717Z,46.15
2023-03-04T15:44:19.195Z,43.70
2023-03-04T15:46:47.239Z,38.90
2023-03-04T15:49:16.088Z,34.63
2023-03-04T15:51:43.831Z,39.47
2023-03-04T15:54:14.150Z,38.55
2023-03-04T15:56:43.087Z,46.63
2023-03-04T15:59:14.320Z,45.17
2023-03-04T16:01:42.174Z,39.22
2023-03-04T16:04:19.359Z,45.17
2023-03-04T16:06:48.970Z,38.20
2023-03-04T16:09:19.849Z,40.05
2023-03-04T16:11:48.222Z,44.75
2023-03-04T16:14:17.228Z,51.00
2023-03-04T16:16:46.673Z,51.55
2023-03-04T16:19:15.162Z,47.20
2023-03-04T16:21:42.876Z,49.83
2023-03-04T16:24:19.582Z,54.55
2023-03-04T16:26:47.864Z,49.30
2023-03-04T16:29:16.649Z,50.70
2023-03-04T16:31:44.595Z,43.53
2023-03-04T16:34:12.960Z,51.45
2023-03-04T16:36:40.844Z,52.20
2023-03-04T16:39:20.889Z,45.55
2023-03-04T16:41:49.028Z,53.47
2023-03-04T16:44:16.963Z,63.00
2023-03-04T16:46:44.749Z,54.55
2023-03-04T16:49:12.671Z,56.08
2023-03-04T16:51:45.600Z,61.28
2023-03-04T16:54:32.029Z,61.65
2023-03-04T16:57:00.853Z,72.22
2023-03-04T16:59:29.542Z,62.78
2023-03-04T17:01:57.840Z,69.78
2023-03-04T17:04:25.963Z,70.27
2023-03-04T17:06:54.254Z,65.90
2023-03-04T17:09:24.335Z,66.28
2023-03-04T17:11:53.230Z,62.83
2023-03-04T17:14:21.210Z,60.03
2023-03-04T17:16:48.939Z,58.47
2023-03-04T17:19:17.256Z,80.85
2023-03-04T17:21:44.943Z,64.88
2023-03-04T17:24:13.208Z,62.33
2023-03-04T17:26:42.669Z,61.40
2023-03-04T17:29:10.650Z,64.13
2023-03-04T17:31:38.267Z,66.75
2023-03-04T17:34:06.295Z,63.60
2023-03-04T17:36:34.886Z,60.95
2023-03-04T17:39:04.934Z,60.08
2023-03-04T17:41:34.368Z,61.90
2023-03-04T17:44:05.881Z,65.50
2023-03-04T17:49:15.868Z,72.20
2023-03-04T17:51:44.954Z,59.30
2023-03-04T17:54:12.812Z,63.80
2023-03-04T17:56:43.466Z,63.25
2023-03-04T17:59:17.184Z,60.50
2023-03-04T18:01:46.214Z,64.35
2023-03-04T18:04:14.969Z,68.60
2023-03-04T18:06:42.897Z,68.03
2023-03-04T18:09:11.047Z,68.65
2023-03-04T18:11:40.322Z,67.38
2023-03-04T18:14:08.750Z,69.53
2023-03-04T18:16:36.447Z,66.03
2023-03-04T18:19:04.934Z,69.18
2023-03-04T18:21:33.451Z,74.13
2023-03-04T18:24:02.267Z,71.53
2023-03-04T18:26:29.833Z,66.07
2023-03-04T18:28:58.006Z,60.20
2023-03-04T18:31:32.233Z,63.17
2023-03-04T18:34:02.342Z,69.47
2023-03-04T18:36:30.659Z,62.42
2023-03-04T18:38:59.690Z,71.47
2023-03-04T18:41:28.004Z,76.03
2023-03-04T18:43:56.799Z,62.58
2023-03-04T18:46:53.867Z,68.28
2023-03-04T18:49:21.857Z,81.93
2023-03-04T18:51:49.359Z,73.88
2023-03-04T18:54:18.423Z,71.57
2023-03-04T18:56:56.761Z,74.80
2023-03-04T18:59:40.927Z,71.93
2023-03-04T19:02:39.581Z,75.32
2023-03-04T19:05:20.256Z,68.97
2023-03-04T19:07:47.889Z,71.53
2023-03-04T19:10:17.672Z,73.30
2023-03-04T19:15:14.340Z,60.47
2023-03-04T19:17:45.303Z,66.88
2023-03-04T19:20:14.476Z,64.15
2023-03-04T19:22:42.278Z,65.57
2023-03-04T19:25:11.028Z,65.03
2023-03-04T19:27:39.170Z,62.67
2023-03-04T19:30:09.978Z,66.85
2023-03-04T19:32:38.268Z,67.78
2023-03-04T19:35:08.325Z,70.55
2023-03-04T19:37:35.938Z,71.47
2023-03-04T19:40:04.975Z,62.78
2023-03-04T19:42:34.214Z,67.20
2023-03-04T19:47:31.288Z,66.15
2023-03-04T19:49:59.070Z,79.63
2023-03-04T19:52:26.690Z,69.15
2023-03-04T19:54:54.702Z,71.80
2023-03-04T19:57:22.212Z,71.40
2023-03-04T19:59:50.721Z,73.22
2023-03-04T20:02:18.338Z,69.18
2023-03-04T20:04:46.432Z,64.22
2023-03-04T20:07:14.098Z,62.72
2023-03-04T20:09:41.896Z,70.18
2023-03-04T20:12:09.526Z,65.85
2023-03-04T20:14:37.446Z,68.80
2023-03-04T20:17:07.047Z,68.90
2023-03-04T20:19:37.080Z,71.20
2023-03-04T20:22:07.078Z,75.15
2023-03-04T20:24:35.085Z,75.80
2023-03-04T20:27:03.050Z,76.35
2023-03-04T20:29:31.028Z,77.28
2023-03-04T20:31:58.886Z,79.43
2023-03-04T20:34:27.267Z,70.63
2023-03-04T20:36:54.861Z,77.07
2023-03-04T20:39:29.077Z,64.43
2023-03-04T20:41:58.727Z,62.47
2023-03-04T20:44:27.134Z,73.70
2023-03-04T20:46:54.609Z,69.03
2023-03-04T20:49:26.737Z,66.55
2023-03-04T20:52:00.290Z,64.03
2023-03-04T20:54:28.164Z,80.25
2023-03-04T20:56:56.249Z,65.93
2023-03-04T20:59:25.568Z,72.28
2023-03-04T21:01:53.294Z,69.50
2023-03-04T21:04:21.415Z,68.80
2023-03-04T21:06:50.751Z,69.05
2023-03-04T21:09:22.515Z,75.68
2023-03-04T21:11:51.590Z,66.63
2023-03-04T21:14:25.882Z,70.90
2023-03-04T21:17:00.520Z,68.13
2023-03-04T21:19:32.481Z,76.95
2023-03-04T21:22:01.020Z,83.78
2023-03-04T21:24:32.861Z,68.15
2023-03-04T21:27:01.714Z,78.18
2023-03-04T21:29:29.585Z,65.28
2023-03-04T21:32:22.756Z,72.20
2023-03-04T21:34:52.954Z,69.72
2023-03-04T21:37:25.646Z,71.13
2023-03-04T21:39:55.115Z,74.72
2023-03-04T21:42:22.900Z,61.80
2023-03-04T21:44:51.796Z,66.60
2023-03-04T21:47:21.211Z,68.82
2023-03-04T21:52:19.916Z,76.80
2023-03-04T21:54:48.670Z,77.07
2023-03-04T21:57:16.774Z,73.00
2023-03-04T21:59:44.917Z,67.45
2023-03-04T22:02:17.704Z,80.70
2023-03-04T22:04:46.266Z,81.05
2023-03-04T22:07:14.496Z,74.05
2023-03-04T22:09:42.358Z,65.83
2023-03-04T22:12:10.267Z,77.13
2023-03-04T22:14:38.060Z,73.63
2023-03-04T22:17:06.052Z,65.25
2023-03-04T22:19:33.988Z,80.82
2023-03-04T22:22:01.812Z,73.13
2023-03-04T22:24:29.683Z,72.13
2023-03-04T22:26:57.776Z,78.82
2023-03-04T22:29:25.847Z,78.45
2023-03-04T22:31:53.416Z,74.97
2023-03-04T22:34:21.353Z,78.47
2023-03-04T22:36:49.464Z,84.45
2023-03-04T22:39:19.669Z,70.53
2023-03-04T22:41:47.986Z,79.13
2023-03-04T22:44:16.331Z,98.95
2023-03-04T22:46:44.020Z,85.93
2023-03-04T22:49:13.989Z,87.22
2023-03-04T22:51:44.021Z,95.30
2023-03-04T22:54:17.405Z,80.10
2023-03-04T22:56:45.586Z,73.50
2023-03-04T22:59:14.132Z,92.37
2023-03-04T23:01:42.141Z,87.97
2023-03-04T23:04:10.101Z,80.30
2023-03-04T23:06:37.878Z,88.35
2023-03-04T23:09:05.918Z,90.85
2023-03-04T23:11:35.676Z,88.28
2023-03-04T23:14:07.570Z,90.05
2023-03-04T23:16:43.311Z,84.57
2023-03-04T23:19:16.671Z,73.30
2023-03-04T23:21:44.929Z,80.47
2023-03-04T23:24:14.041Z,83.47
2023-03-04T23:26:42.867Z,84.13
2023-03-04T23:29:14.722Z,92.10
2023-03-04T23:31:44.410Z,73.57
2023-03-04T23:34:12.952Z,77.05
2023-03-04T23:36:41.072Z,87.20
2023-03-04T23:39:10.184Z,70.05
2023-03-04T23:41:38.670Z,89.35
2023-03-04T23:44:08.275Z,92.90
2023-03-04T23:46:37.798Z,84.43
2023-03-04T23:49:12.590Z,80.43
2023-03-04T23:51:41.031Z,76.07
2023-03-04T23:54:09.048Z,78.05
2023-03-04T23:56:36.911Z,77.43
2023-03-04T23:59:05.276Z,80.90
